sensor_id;sensor_type;location;lat;lon;timestamp;pressure;altitude;pressure_sealevel;temperature;humidity
6829;BME280;17930;48.592;8.868;2023-04-05T00:02:00;97284.03;;;-0.58;100.00
6829;BME280;17930;48.592;8.868;2023-04-05T00:04:27;97286.38;;;-0.63;100.00
6829;BME280;17930;48.592;8.868;2023-04-05T00:06:54;97278.13;;;-0.58;100.00
6829;BME280;17930;48.592;8.868;2023-04-05T00:09:21;97276.59;;;-0.53;100.00
6829;BME280;17930;48.592;8.868;2023-04-05T00:11:49;97276.78;;;-0.48;100.00
6829;BME280;17930;48.592;8.868;2023-04-05T00:14:16;97279.81;;;-0.38;100.00
6829;BME280;17930;48.592;8.868;2023-04-05T00:16:42;97276.69;;;-0.27;100.00
6829;BME280;17930;48.592;8.868;2023-04-05T00:19:09;97272.75;;;-0.30;100.00
6829;BME280;17930;48.592;8.868;2023-04-05T00:21:38;97273.94;;;-0.32;100.00
6829;BME280;17930;48.592;8.868;2023-04-05T00:24:06;97266.91;;;-0.04;100.00
6829;BME280;17930;48.592;8.868;2023-04-05T00:26:40;97261.00;;;-0.05;100.00
6829;BME280;17930;48.592;8.868;2023-04-05T00:29:09;97262.00;;;0.00;100.00
6829;BME280;17930;48.592;8.868;2023-04-05T00:31:36;97250.19;;;-0.01;100.00
6829;BME280;17930;48.592;8.868;2023-04-05T00:34:03;97260.66;;;0.04;100.00
6829;BME280;17930;48.592;8.868;2023-04-05T00:36:33;97253.28;;;-0.11;100.00
6829;BME280;17930;48.592;8.868;2023-04-05T00:39:00;97253.47;;;-0.19;100.00
6829;BME280;17930;48.592;8.868;2023-04-05T00:41:30;97247.16;;;-0.23;100.00
6829;BME280;17930;48.592;8.868;2023-04-05T00:43:57;97248.53;;;-0.27;100.00
6829;BME280;17930;48.592;8.868;2023-04-05T00:46:26;97250.91;;;-0.19;100.00
6829;BME280;17930;48.592;8.868;2023-04-05T00:48:54;97247.81;;;-0.08;100.00
6829;BME280;17930;48.592;8.868;2023-04-05T00:51:21;97249.97;;;0.01;100.00
6829;BME280;17930;48.592;8.868;2023-04-05T00:53:48;97241.72;;;0.05;100.00
6829;BME280;17930;48.592;8.868;2023-04-05T00:56:18;97241.13;;;0.03;100.00
6829;BME280;17930;48.592;8.868;2023-04-05T00:58:46;97242.28;;;-0.05;100.00
6829;BME280;17930;48.592;8.868;2023-04-05T01:01:16;97230.28;;;0.08;100.00
6829;BME280;17930;48.592;8.868;2023-04-05T01:03:48;97237.81;;;0.35;100.00
6829;BME280;17930;48.592;8.868;2023-04-05T01:06:25;97222.03;;;0.25;100.00
6829;BME280;17930;48.592;8.868;2023-04-05T01:08:59;97227.97;;;0.26;100.00
6829;BME280;17930;48.592;8.868;2023-04-05T01:11:29;97225.38;;;0.19;100.00
6829;BME280;17930;48.592;8.868;2023-04-05T01:13:58;97216.47;;;0.02;100.00
6829;BME280;17930;48.592;8.868;2023-04-05T01:16:25;97215.25;;;-0.14;100.00
6829;BME280;17930;48.592;8.868;2023-04-05T01:18:53;97207.34;;;-0.26;100.00
6829;BME280;17930;48.592;8.868;2023-04-05T01:21:54;97216.22;;;-0.28;100.00
6829;BME280;17930;48.592;8.868;2023-04-05T01:24:48;97220.38;;;-0.14;100.00
6829;BME280;17930;48.592;8.868;2023-04-05T01:27:20;97212.50;;;-0.19;100.00
6829;BME280;17930;48.592;8.868;2023-04-05T01:29:58;97204.25;;;-0.08;100.00
6829;BME280;17930;48.592;8.868;2023-04-05T01:32:38;97207.38;;;-0.19;100.00
6829;BME280;17930;48.592;8.868;2023-04-05T01:35:11;97207.13;;;-0.24;100.00
6829;BME280;17930;48.592;8.868;2023-04-05T01:37:44;97201.84;;;-0.16;100.00
6829;BME280;17930;48.592;8.868;2023-04-05T01:40:13;97209.31;;;-0.21;100.00
6829;BME280;17930;48.592;8.868;2023-04-05T01:42:42;97199.88;;;-0.14;100.00
6829;BME280;17930;48.592;8.868;2023-04-05T01:45:11;97205.22;;;-0.09;100.00
6829;BME280;17930;48.592;8.868;2023-04-05T01:47:38;97194.00;;;-0.08;100.00
6829;BME280;17930;48.592;8.868;2023-04-05T01:50:06;97188.25;;;-0.17;100.00
6829;BME280;17930;48.592;8.868;2023-04-05T01:52:33;97195.34;;;-0.25;100.00
6829;BME280;17930;48.592;8.868;2023-04-05T01:54:59;97192.38;;;-0.22;100.00
6829;BME280;17930;48.592;8.868;2023-04-05T01:57:27;97193.13;;;-0.35;100.00
6829;BME280;17930;48.592;8.868;2023-04-05T01:59:54;97189.97;;;-0.43;100.00
6829;BME280;17930;48.592;8.868;2023-04-05T02:02:22;97190.94;;;-0.51;100.00
6829;BME280;17930;48.592;8.868;2023-04-05T02:04:49;97192.06;;;-0.59;100.00
6829;BME280;17930;48.592;8.868;2023-04-05T02:07:15;97182.97;;;-0.68;100.00
6829;BME280;17930;48.592;8.868;2023-04-05T02:09:42;97182.78;;;-0.67;100.00
6829;BME280;17930;48.592;8.868;2023-04-05T02:12:09;97186.69;;;-0.71;100.00
6829;BME280;17930;48.592;8.868;2023-04-05T02:14:36;97176.69;;;-0.66;100.00
6829;BME280;17930;48.592;8.868;2023-04-05T02:17:02;97173.88;;;-0.77;100.00
6829;BME280;17930;48.592;8.868;2023-04-05T02:19:30;97180.16;;;-0.80;100.00
6829;BME280;17930;48.592;8.868;2023-04-05T02:22:02;97172.88;;;-0.83;100.00
6829;BME280;17930;48.592;8.868;2023-04-05T02:24:28;97175.72;;;-0.65;100.00
6829;BME280;17930;48.592;8.868;2023-04-05T02:26:55;97163.88;;;-0.66;100.00
6829;BME280;17930;48.592;8.868;2023-04-05T02:29:22;97167.00;;;-0.77;100.00
6829;BME280;17930;48.592;8.868;2023-04-05T02:31:48;97167.59;;;-0.75;100.00
6829;BME280;17930;48.592;8.868;2023-04-05T02:34:15;97168.22;;;-0.66;100.00
6829;BME280;17930;48.592;8.868;2023-04-05T02:36:43;97174.28;;;-0.74;100.00
6829;BME280;17930;48.592;8.868;2023-04-05T02:39:09;97162.84;;;-0.78;100.00
6829;BME280;17930;48.592;8.868;2023-04-05T02:41:37;97170.47;;;-0.91;100.00
6829;BME280;17930;48.592;8.868;2023-04-05T02:44:04;97165.91;;;-0.95;100.00
6829;BME280;17930;48.592;8.868;2023-04-05T02:46:31;97166.88;;;-1.02;100.00
6829;BME280;17930;48.592;8.868;2023-04-05T02:48:58;97161.75;;;-1.02;100.00
6829;BME280;17930;48.592;8.868;2023-04-05T02:51:25;97160.66;;;-0.87;100.00
6829;BME280;17930;48.592;8.868;2023-04-05T02:53:53;97161.44;;;-0.87;100.00
6829;BME280;17930;48.592;8.868;2023-04-05T02:56:20;97170.66;;;-0.99;100.00
6829;BME280;17930;48.592;8.868;2023-04-05T02:58:47;97165.16;;;-0.96;100.00
6829;BME280;17930;48.592;8.868;2023-04-05T03:01:14;97168.53;;;-0.89;100.00
6829;BME280;17930;48.592;8.868;2023-04-05T03:03:42;97166.94;;;-0.90;100.00
6829;BME280;17930;48.592;8.868;2023-04-05T03:06:09;97167.69;;;-0.96;100.00
6829;BME280;17930;48.592;8.868;2023-04-05T03:08:36;97162.91;;;-1.11;100.00
6829;BME280;17930;48.592;8.868;2023-04-05T03:11:05;97167.19;;;-1.18;100.00
6829;BME280;17930;48.592;8.868;2023-04-05T03:13:32;97167.19;;;-1.18;100.00
6829;BME280;17930;48.592;8.868;2023-04-05T03:15:59;97166.84;;;-1.09;100.00
6829;BME280;17930;48.592;8.868;2023-04-05T03:18:26;97156.00;;;-1.11;100.00
6829;BME280;17930;48.592;8.868;2023-04-05T03:20:54;97156.84;;;-1.04;100.00
6829;BME280;17930;48.592;8.868;2023-04-05T03:23:21;97158.97;;;-1.07;100.00
6829;BME280;17930;48.592;8.868;2023-04-05T03:25:53;97160.09;;;-1.16;100.00
6829;BME280;17930;48.592;8.868;2023-04-05T03:28:22;97159.72;;;-1.13;100.00
6829;BME280;17930;48.592;8.868;2023-04-05T03:30:49;97166.50;;;-1.33;100.00
6829;BME280;17930;48.592;8.868;2023-04-05T03:33:15;97157.03;;;-1.39;100.00
6829;BME280;17930;48.592;8.868;2023-04-05T03:35:42;97160.97;;;-1.37;100.00
6829;BME280;17930;48.592;8.868;2023-04-05T03:38:09;97157.63;;;-1.37;100.00
6829;BME280;17930;48.592;8.868;2023-04-05T03:40:36;97165.94;;;-1.29;100.00
6829;BME280;17930;48.592;8.868;2023-04-05T03:43:04;97154.84;;;-1.42;100.00
6829;BME280;17930;48.592;8.868;2023-04-05T03:45:32;97159.13;;;-1.49;100.00
6829;BME280;17930;48.592;8.868;2023-04-05T03:47:58;97158.38;;;-1.43;100.00
6829;BME280;17930;48.592;8.868;2023-04-05T03:50:26;97155.22;;;-1.45;100.00
6829;BME280;17930;48.592;8.868;2023-04-05T03:52:52;97157.31;;;-1.55;100.00
6829;BME280;17930;48.592;8.868;2023-04-05T03:55:19;97159.63;;;-1.60;100.00
6829;BME280;17930;48.592;8.868;2023-04-05T03:57:46;97158.47;;;-1.85;100.00
6829;BME280;17930;48.592;8.868;2023-04-05T04:00:13;97157.56;;;-1.77;100.00
6829;BME280;17930;48.592;8.868;2023-04-05T04:02:45;97161.88;;;-1.78;100.00
6829;BME280;17930;48.592;8.868;2023-04-05T04:05:13;97149.94;;;-1.71;100.00
6829;BME280;17930;48.592;8.868;2023-04-05T04:07:40;97149.50;;;-1.74;100.00
6829;BME280;17930;48.592;8.868;2023-04-05T04:10:08;97155.84;;;-1.70;100.00
6829;BME280;17930;48.592;8.868;2023-04-05T04:12:35;97154.22;;;-1.78;100.00
6829;BME280;17930;48.592;8.868;2023-04-05T04:15:03;97152.63;;;-1.79;100.00
6829;BME280;17930;48.592;8.868;2023-04-05T04:17:31;97145.94;;;-1.80;100.00
6829;BME280;17930;48.592;8.868;2023-04-05T04:19:59;97142.41;;;-1.79;100.00
6829;BME280;17930;48.592;8.868;2023-04-05T04:22:26;97147.53;;;-2.00;100.00
6829;BME280;17930;48.592;8.868;2023-04-05T04:24:57;97147.88;;;-2.09;100.00
6829;BME280;17930;48.592;8.868;2023-04-05T04:27:27;97150.41;;;-2.09;100.00
6829;BME280;17930;48.592;8.868;2023-04-05T04:29:54;97144.97;;;-2.00;100.00
6829;BME280;17930;48.592;8.868;2023-04-05T04:32:28;97147.34;;;-1.98;100.00
6829;BME280;17930;48.592;8.868;2023-04-05T04:35:17;97141.66;;;-2.00;100.00
6829;BME280;17930;48.592;8.868;2023-04-05T04:37:45;97133.25;;;-2.15;100.00
6829;BME280;17930;48.592;8.868;2023-04-05T04:40:13;97143.91;;;-2.11;100.00
6829;BME280;17930;48.592;8.868;2023-04-05T04:42:42;97148.06;;;-2.10;100.00
6829;BME280;17930;48.592;8.868;2023-04-05T04:45:11;97148.06;;;-2.10;100.00
6829;BME280;17930;48.592;8.868;2023-04-05T04:47:41;97146.47;;;-2.32;100.00
6829;BME280;17930;48.592;8.868;2023-04-05T04:50:08;97139.88;;;-2.20;100.00
6829;BME280;17930;48.592;8.868;2023-04-05T04:52:37;97148.28;;;-2.26;100.00
6829;BME280;17930;48.592;8.868;2023-04-05T04:55:05;97148.28;;;-2.26;100.00
6829;BME280;17930;48.592;8.868;2023-04-05T04:57:32;97147.31;;;-2.25;100.00
6829;BME280;17930;48.592;8.868;2023-04-05T04:59:59;97149.50;;;-2.22;100.00
6829;BME280;17930;48.592;8.868;2023-04-05T05:02:26;97148.53;;;-2.01;100.00
6829;BME280;17930;48.592;8.868;2023-04-05T05:04:53;97144.56;;;-2.03;100.00
6829;BME280;17930;48.592;8.868;2023-04-05T05:07:19;97161.53;;;-2.16;100.00
6829;BME280;17930;48.592;8.868;2023-04-05T05:09:48;97162.63;;;-2.25;100.00
6829;BME280;17930;48.592;8.868;2023-04-05T05:12:18;97159.31;;;-2.26;100.00
6829;BME280;17930;48.592;8.868;2023-04-05T05:14:46;97163.03;;;-2.22;100.00
6829;BME280;17930;48.592;8.868;2023-04-05T05:17:13;97165.84;;;-2.17;100.00
6829;BME280;17930;48.592;8.868;2023-04-05T05:19:39;97161.78;;;-2.11;100.00
6829;BME280;17930;48.592;8.868;2023-04-05T05:22:06;97171.00;;;-1.90;100.00
6829;BME280;17930;48.592;8.868;2023-04-05T05:24:33;97167.59;;;-1.76;100.00
6829;BME280;17930;48.592;8.868;2023-04-05T05:27:01;97161.50;;;-1.75;100.00
6829;BME280;17930;48.592;8.868;2023-04-05T05:29:27;97160.66;;;-1.82;100.00
6829;BME280;17930;48.592;8.868;2023-04-05T05:31:54;97159.31;;;-1.78;100.00
6829;BME280;17930;48.592;8.868;2023-04-05T05:34:21;97154.81;;;-1.76;100.00
6829;BME280;17930;48.592;8.868;2023-04-05T05:36:48;97158.94;;;-1.75;100.00
6829;BME280;17930;48.592;8.868;2023-04-05T05:39:15;97155.72;;;-1.62;100.00
6829;BME280;17930;48.592;8.868;2023-04-05T05:41:43;97162.72;;;-1.37;100.00
6829;BME280;17930;48.592;8.868;2023-04-05T05:44:11;97158.44;;;-1.30;100.00
6829;BME280;17930;48.592;8.868;2023-04-05T05:49:10;97151.19;;;-0.87;100.00
6829;BME280;17930;48.592;8.868;2023-04-05T05:51:37;97165.50;;;-0.52;100.00
6829;BME280;17930;48.592;8.868;2023-04-05T05:54:04;97164.78;;;-0.27;100.00
6829;BME280;17930;48.592;8.868;2023-04-05T05:56:30;97164.81;;;-0.07;100.00
6829;BME280;17930;48.592;8.868;2023-04-05T05:58:57;97162.03;;;0.71;100.00
6829;BME280;17930;48.592;8.868;2023-04-05T06:01:25;97161.16;;;1.16;100.00
6829;BME280;17930;48.592;8.868;2023-04-05T06:03:53;97147.44;;;1.72;100.00
6829;BME280;17930;48.592;8.868;2023-04-05T06:06:21;97148.72;;;2.42;100.00
6829;BME280;17930;48.592;8.868;2023-04-05T06:08:48;97152.44;;;2.46;100.00
6829;BME280;17930;48.592;8.868;2023-04-05T06:11:17;97150.22;;;2.25;100.00
6829;BME280;17930;48.592;8.868;2023-04-05T06:13:43;97155.84;;;2.82;100.00
6829;BME280;17930;48.592;8.868;2023-04-05T06:16:10;97155.19;;;3.58;100.00
6829;BME280;17930;48.592;8.868;2023-04-05T06:18:38;97155.69;;;3.49;100.00
6829;BME280;17930;48.592;8.868;2023-04-05T06:21:05;97147.94;;;3.96;100.00
6829;BME280;17930;48.592;8.868;2023-04-05T06:23:32;97146.78;;;3.92;100.00
6829;BME280;17930;48.592;8.868;2023-04-05T06:25:58;97144.72;;;4.23;100.00
6829;BME280;17930;48.592;8.868;2023-04-05T06:28:25;97152.34;;;4.29;100.00
6829;BME280;17930;48.592;8.868;2023-04-05T06:30:52;97143.31;;;4.38;100.00
6829;BME280;17930;48.592;8.868;2023-04-05T06:33:19;97144.59;;;5.20;100.00
6829;BME280;17930;48.592;8.868;2023-04-05T06:35:47;97144.22;;;5.79;100.00
6829;BME280;17930;48.592;8.868;2023-04-05T06:38:13;97151.69;;;5.64;100.00
6829;BME280;17930;48.592;8.868;2023-04-05T06:40:40;97147.25;;;5.76;100.00
6829;BME280;17930;48.592;8.868;2023-04-05T06:43:07;97142.50;;;5.57;100.00
6829;BME280;17930;48.592;8.868;2023-04-05T06:45:35;97140.03;;;6.06;100.00
6829;BME280;17930;48.592;8.868;2023-04-05T06:48:02;97137.66;;;6.86;100.00
6829;BME280;17930;48.592;8.868;2023-04-05T06:50:28;97142.25;;;6.13;100.00
6829;BME280;17930;48.592;8.868;2023-04-05T06:52:56;97149.53;;;6.82;100.00
6829;BME280;17930;48.592;8.868;2023-04-05T06:55:23;97144.34;;;7.19;100.00
6829;BME280;17930;48.592;8.868;2023-04-05T06:57:50;97149.16;;;7.49;100.00
6829;BME280;17930;48.592;8.868;2023-04-05T07:00:17;97147.31;;;7.49;100.00
6829;BME280;17930;48.592;8.868;2023-04-05T07:02:46;97151.47;;;7.98;100.00
6829;BME280;17930;48.592;8.868;2023-04-05T07:05:13;97142.94;;;8.23;100.00
6829;BME280;17930;48.592;8.868;2023-04-05T07:07:40;97148.19;;;7.81;100.00
6829;BME280;17930;48.592;8.868;2023-04-05T07:10:11;97152.44;;;7.44;100.00
6829;BME280;17930;48.592;8.868;2023-04-05T07:12:38;97154.50;;;6.67;100.00
6829;BME280;17930;48.592;8.868;2023-04-05T07:15:06;97155.47;;;6.45;100.00
6829;BME280;17930;48.592;8.868;2023-04-05T07:17:33;97148.22;;;6.30;100.00
6829;BME280;17930;48.592;8.868;2023-04-05T07:20:01;97149.66;;;6.38;100.00
6829;BME280;17930;48.592;8.868;2023-04-05T07:22:30;97151.13;;;6.83;100.00
6829;BME280;17930;48.592;8.868;2023-04-05T07:24:57;97151.97;;;7.47;100.00
6829;BME280;17930;48.592;8.868;2023-04-05T07:27:25;97143.50;;;8.04;100.00
6829;BME280;17930;48.592;8.868;2023-04-05T07:29:51;97139.88;;;8.31;100.00
6829;BME280;17930;48.592;8.868;2023-04-05T07:32:18;97138.28;;;8.30;100.00
6829;BME280;17930;48.592;8.868;2023-04-05T07:34:45;97145.56;;;8.28;100.00
6829;BME280;17930;48.592;8.868;2023-04-05T07:37:12;97142.28;;;8.74;100.00
6829;BME280;17930;48.592;8.868;2023-04-05T07:39:39;97146.13;;;9.03;99.20
6829;BME280;17930;48.592;8.868;2023-04-05T07:42:05;97142.97;;;8.60;95.54
6829;BME280;17930;48.592;8.868;2023-04-05T07:44:33;97140.31;;;9.37;94.55
6829;BME280;17930;48.592;8.868;2023-04-05T07:47:00;97141.28;;;9.92;88.21
6829;BME280;17930;48.592;8.868;2023-04-05T07:49:28;97141.38;;;9.41;84.00
6829;BME280;17930;48.592;8.868;2023-04-05T07:51:55;97143.28;;;9.04;86.63
6829;BME280;17930;48.592;8.868;2023-04-05T07:54:22;97143.25;;;8.63;89.15
6829;BME280;17930;48.592;8.868;2023-04-05T07:56:50;97143.34;;;8.73;91.11
6829;BME280;17930;48.592;8.868;2023-04-05T07:59:17;97138.66;;;9.87;89.11
6829;BME280;17930;48.592;8.868;2023-04-05T08:01:45;97131.72;;;10.42;85.38
6829;BME280;17930;48.592;8.868;2023-04-05T08:04:11;97138.28;;;11.57;79.00
6829;BME280;17930;48.592;8.868;2023-04-05T08:06:38;97140.47;;;11.98;75.34
6829;BME280;17930;48.592;8.868;2023-04-05T08:09:05;97137.31;;;12.39;73.05
6829;BME280;17930;48.592;8.868;2023-04-05T08:11:33;97136.03;;;12.31;71.38
6829;BME280;17930;48.592;8.868;2023-04-05T08:14:00;97132.06;;;12.72;68.31
6829;BME280;17930;48.592;8.868;2023-04-05T08:16:26;97134.38;;;13.07;65.31
6829;BME280;17930;48.592;8.868;2023-04-05T08:18:55;97136.84;;;12.32;65.03
6829;BME280;17930;48.592;8.868;2023-04-05T08:21:21;97142.75;;;11.46;66.03
6829;BME280;17930;48.592;8.868;2023-04-05T08:23:48;97133.53;;;10.81;67.06
6829;BME280;17930;48.592;8.868;2023-04-05T08:26:15;97142.84;;;11.22;70.43
6829;BME280;17930;48.592;8.868;2023-04-05T08:28:42;97135.72;;;11.52;68.97
6829;BME280;17930;48.592;8.868;2023-04-05T08:31:09;97138.69;;;11.11;67.33
6829;BME280;17930;48.592;8.868;2023-04-05T08:33:36;97139.94;;;11.28;66.09
6829;BME280;17930;48.592;8.868;2023-04-05T08:36:05;97140.19;;;9.83;67.75
6829;BME280;17930;48.592;8.868;2023-04-05T08:38:32;97137.25;;;12.06;68.66
6829;BME280;17930;48.592;8.868;2023-04-05T08:41:06;97133.34;;;13.73;61.07
6829;BME280;17930;48.592;8.868;2023-04-05T08:43:46;97120.34;;;14.41;58.02
6829;BME280;17930;48.592;8.868;2023-04-05T08:46:19;97120.97;;;14.83;57.06
6829;BME280;17930;48.592;8.868;2023-04-05T08:48:48;97135.03;;;14.74;53.46
6829;BME280;17930;48.592;8.868;2023-04-05T08:51:19;97129.13;;;15.53;53.42
6829;BME280;17930;48.592;8.868;2023-04-05T08:53:46;97133.09;;;13.92;52.08
6829;BME280;17930;48.592;8.868;2023-04-05T08:56:14;97131.31;;;15.06;51.13
6829;BME280;17930;48.592;8.868;2023-04-05T08:58:46;97128.84;;;16.17;48.94
6829;BME280;17930;48.592;8.868;2023-04-05T09:01:15;97126.34;;;13.86;49.62
6829;BME280;17930;48.592;8.868;2023-04-05T09:03:42;97123.06;;;14.18;50.25
6829;BME280;17930;48.592;8.868;2023-04-05T09:06:11;97116.13;;;14.58;49.84
6829;BME280;17930;48.592;8.868;2023-04-05T09:08:40;97118.38;;;15.10;49.66
6829;BME280;17930;48.592;8.868;2023-04-05T09:11:06;97116.91;;;14.90;48.89
6829;BME280;17930;48.592;8.868;2023-04-05T09:13:33;97115.50;;;13.33;51.04
6829;BME280;17930;48.592;8.868;2023-04-05T09:16:00;97123.78;;;14.86;49.49
6829;BME280;17930;48.592;8.868;2023-04-05T09:18:27;97119.91;;;14.52;49.35
6829;BME280;17930;48.592;8.868;2023-04-05T09:21:01;97118.53;;;15.58;49.56
6829;BME280;17930;48.592;8.868;2023-04-05T09:23:28;97120.38;;;15.71;46.76
6829;BME280;17930;48.592;8.868;2023-04-05T09:25:56;97119.28;;;15.59;46.45
6829;BME280;17930;48.592;8.868;2023-04-05T09:28:38;97125.72;;;16.15;45.39
6829;BME280;17930;48.592;8.868;2023-04-05T09:31:05;97127.19;;;15.45;45.09
6829;BME280;17930;48.592;8.868;2023-04-05T09:33:33;97129.31;;;15.70;45.39
6829;BME280;17930;48.592;8.868;2023-04-05T09:35:59;97125.66;;;15.93;45.42
6829;BME280;17930;48.592;8.868;2023-04-05T09:38:41;97117.72;;;15.71;44.91
6829;BME280;17930;48.592;8.868;2023-04-05T09:41:09;97117.75;;;16.06;44.74
6829;BME280;17930;48.592;8.868;2023-04-05T09:43:37;97125.69;;;16.42;45.02
6829;BME280;17930;48.592;8.868;2023-04-05T09:46:04;97120.63;;;16.18;44.45
6829;BME280;17930;48.592;8.868;2023-04-05T09:48:45;97114.66;;;16.61;43.48
6829;BME280;17930;48.592;8.868;2023-04-05T09:51:13;97122.69;;;17.94;41.88
6829;BME280;17930;48.592;8.868;2023-04-05T09:53:58;97124.84;;;16.19;42.17
6829;BME280;17930;48.592;8.868;2023-04-05T09:56:28;97106.09;;;14.29;45.95
6829;BME280;17930;48.592;8.868;2023-04-05T09:58:59;97107.13;;;15.63;44.75
6829;BME280;17930;48.592;8.868;2023-04-05T10:01:27;97101.06;;;15.09;46.20
6829;BME280;17930;48.592;8.868;2023-04-05T10:03:56;97105.69;;;15.57;43.72
6829;BME280;17930;48.592;8.868;2023-04-05T10:06:23;97098.66;;;16.01;44.65
6829;BME280;17930;48.592;8.868;2023-04-05T10:08:50;97109.34;;;16.53;42.19
6829;BME280;17930;48.592;8.868;2023-04-05T10:11:17;97110.28;;;17.39;41.68
6829;BME280;17930;48.592;8.868;2023-04-05T10:13:47;97106.78;;;17.22;42.49
6829;BME280;17930;48.592;8.868;2023-04-05T10:16:19;97102.66;;;15.37;43.21
6829;BME280;17930;48.592;8.868;2023-04-05T10:18:50;97092.75;;;16.31;44.36
6829;BME280;17930;48.592;8.868;2023-04-05T10:21:20;97099.09;;;15.81;42.93
6829;BME280;17930;48.592;8.868;2023-04-05T10:23:52;97082.19;;;16.74;43.78
6829;BME280;17930;48.592;8.868;2023-04-05T10:26:24;97096.88;;;18.75;40.22
6829;BME280;17930;48.592;8.868;2023-04-05T10:29:01;97092.84;;;18.02;40.77
6829;BME280;17930;48.592;8.868;2023-04-05T10:31:37;97091.41;;;17.62;40.23
6829;BME280;17930;48.592;8.868;2023-04-05T10:34:11;97083.50;;;16.20;42.96
6829;BME280;17930;48.592;8.868;2023-04-05T10:36:44;97077.25;;;17.42;41.32
6829;BME280;17930;48.592;8.868;2023-04-05T10:39:22;97073.44;;;17.81;42.15
6829;BME280;17930;48.592;8.868;2023-04-05T10:41:52;97079.41;;;18.91;41.68
6829;BME280;17930;48.592;8.868;2023-04-05T10:44:21;97090.69;;;18.54;39.16
6829;BME280;17930;48.592;8.868;2023-04-05T10:46:48;97085.47;;;17.10;39.35
6829;BME280;17930;48.592;8.868;2023-04-05T10:49:21;97092.59;;;17.40;39.31
6829;BME280;17930;48.592;8.868;2023-04-05T10:51:52;97088.28;;;16.83;39.03
6829;BME280;17930;48.592;8.868;2023-04-05T10:54:20;97073.38;;;17.47;40.74
6829;BME280;17930;48.592;8.868;2023-04-05T10:56:47;97077.59;;;17.65;39.89
6829;BME280;17930;48.592;8.868;2023-04-05T10:59:15;97078.81;;;17.12;40.27
6829;BME280;17930;48.592;8.868;2023-04-05T11:01:45;97078.84;;;17.68;40.53
6829;BME280;17930;48.592;8.868;2023-04-05T11:04:13;97077.16;;;18.56;39.62
6829;BME280;17930;48.592;8.868;2023-04-05T11:06:40;97081.06;;;18.42;38.90
6829;BME280;17930;48.592;8.868;2023-04-05T11:09:11;97076.56;;;19.50;39.30
6829;BME280;17930;48.592;8.868;2023-04-05T11:11:40;97071.69;;;17.51;39.27
6829;BME280;17930;48.592;8.868;2023-04-05T11:14:17;97065.34;;;15.61;42.45
6829;BME280;17930;48.592;8.868;2023-04-05T11:16:48;97062.97;;;16.08;42.03
6829;BME280;17930;48.592;8.868;2023-04-05T11:19:17;97064.47;;;15.12;41.98
6829;BME280;17930;48.592;8.868;2023-04-05T11:21:44;97053.63;;;13.92;44.16
6829;BME280;17930;48.592;8.868;2023-04-05T11:24:12;97061.34;;;14.97;42.93
6829;BME280;17930;48.592;8.868;2023-04-05T11:26:54;97041.66;;;16.92;43.24
6829;BME280;17930;48.592;8.868;2023-04-05T11:29:46;97057.94;;;16.64;40.55
6829;BME280;17930;48.592;8.868;2023-04-05T11:32:17;97066.09;;;17.45;39.88
6829;BME280;17930;48.592;8.868;2023-04-05T11:34:57;97061.78;;;17.82;39.06
6829;BME280;17930;48.592;8.868;2023-04-05T11:37:54;97060.66;;;17.11;38.61
6829;BME280;17930;48.592;8.868;2023-04-05T11:40:25;97058.84;;;17.84;38.14
6829;BME280;17930;48.592;8.868;2023-04-05T11:43:01;97045.31;;;18.52;37.59
6829;BME280;17930;48.592;8.868;2023-04-05T11:45:30;97048.91;;;17.89;36.85
6829;BME280;17930;48.592;8.868;2023-04-05T11:47:59;97049.06;;;17.84;37.74
6829;BME280;17930;48.592;8.868;2023-04-05T11:50:27;97038.91;;;20.14;38.17
6829;BME280;17930;48.592;8.868;2023-04-05T11:53:13;97052.03;;;19.41;36.94
6829;BME280;17930;48.592;8.868;2023-04-05T11:55:41;97046.84;;;20.34;37.21
6829;BME280;17930;48.592;8.868;2023-04-05T11:58:13;97043.59;;;20.49;36.24
6829;BME280;17930;48.592;8.868;2023-04-05T12:00:40;97042.56;;;20.42;35.48
6829;BME280;17930;48.592;8.868;2023-04-05T12:03:11;97035.22;;;21.03;35.08
6829;BME280;17930;48.592;8.868;2023-04-05T12:05:47;97052.69;;;20.92;34.51
6829;BME280;17930;48.592;8.868;2023-04-05T12:08:15;97044.84;;;19.42;34.65
6829;BME280;17930;48.592;8.868;2023-04-05T12:10:41;97034.00;;;19.63;35.26
6829;BME280;17930;48.592;8.868;2023-04-05T12:13:08;97027.25;;;20.47;35.27
6829;BME280;17930;48.592;8.868;2023-04-05T12:15:36;97031.53;;;18.84;35.60
6829;BME280;17930;48.592;8.868;2023-04-05T12:18:12;97031.91;;;19.49;34.88
6829;BME280;17930;48.592;8.868;2023-04-05T12:20:40;97030.94;;;18.87;34.92
6829;BME280;17930;48.592;8.868;2023-04-05T12:23:07;97010.69;;;17.06;37.63
6829;BME280;17930;48.592;8.868;2023-04-05T12:25:34;97006.88;;;18.72;37.09
6829;BME280;17930;48.592;8.868;2023-04-05T12:28:04;97012.72;;;20.33;35.36
6829;BME280;17930;48.592;8.868;2023-04-05T12:30:31;97011.91;;;20.53;35.02
6829;BME280;17930;48.592;8.868;2023-04-05T12:33:06;97004.63;;;20.50;35.50
6829;BME280;17930;48.592;8.868;2023-04-05T12:35:35;97020.28;;;19.90;34.79
6829;BME280;17930;48.592;8.868;2023-04-05T12:38:03;97020.22;;;20.63;33.71
6829;BME280;17930;48.592;8.868;2023-04-05T12:40:31;97017.41;;;18.89;34.72
6829;BME280;17930;48.592;8.868;2023-04-05T12:43:03;97014.44;;;17.60;35.06
6829;BME280;17930;48.592;8.868;2023-04-05T12:45:30;96998.44;;;15.54;37.86
6829;BME280;17930;48.592;8.868;2023-04-05T12:48:07;96983.06;;;15.47;38.77
6829;BME280;17930;48.592;8.868;2023-04-05T12:50:41;96994.75;;;16.72;36.83
6829;BME280;17930;48.592;8.868;2023-04-05T12:53:08;96992.19;;;18.83;36.50
6829;BME280;17930;48.592;8.868;2023-04-05T12:55:44;97010.50;;;19.82;33.64
6829;BME280;17930;48.592;8.868;2023-04-05T12:58:13;97014.34;;;19.64;33.47
6829;BME280;17930;48.592;8.868;2023-04-05T13:00:42;97000.59;;;18.14;35.50
6829;BME280;17930;48.592;8.868;2023-04-05T13:03:14;96990.84;;;17.00;36.76
6829;BME280;17930;48.592;8.868;2023-04-05T13:05:43;96988.25;;;15.96;36.09
6829;BME280;17930;48.592;8.868;2023-04-05T13:08:09;96981.81;;;16.54;36.61
6829;BME280;17930;48.592;8.868;2023-04-05T13:10:36;96976.53;;;16.54;37.30
6829;BME280;17930;48.592;8.868;2023-04-05T13:13:02;96972.88;;;17.19;37.64
6829;BME280;17930;48.592;8.868;2023-04-05T13:15:29;96978.53;;;17.43;35.99
6829;BME280;17930;48.592;8.868;2023-04-05T13:17:56;96978.88;;;18.00;35.56
6829;BME280;17930;48.592;8.868;2023-04-05T13:20:23;96967.91;;;18.60;35.88